createdAt,value
2017-08-28T00:01:34.414Z,101823.81
2017-08-28T00:04:02.913Z,101816.52
2017-08-28T00:06:31.393Z,101817.46
2017-08-28T00:08:59.878Z,101812.09
2017-08-28T00:11:28.362Z,101815.80
2017-08-28T00:13:56.827Z,101812.64
2017-08-28T00:16:25.317Z,101810.02
2017-08-28T00:18:53.787Z,101809.02
2017-08-28T00:21:22.287Z,101808.11
2017-08-28T00:23:50.755Z,101804.77
2017-08-28T00:26:19.245Z,101809.22
2017-08-28T00:28:47.718Z,101811.45
2017-08-28T00:31:16.216Z,101801.00
2017-08-28T00:33:44.645Z,101804.53
2017-08-28T00:36:13.083Z,101803.75
2017-08-28T00:38:41.543Z,101802.67
2017-08-28T00:41:10.024Z,101809.67
2017-08-28T00:43:38.517Z,101809.61
2017-08-28T00:46:07.000Z,101800.67
2017-08-28T00:48:35.430Z,101800.58
2017-08-28T00:51:03.969Z,101801.88
2017-08-28T00:53:32.396Z,101798.01
2017-08-28T00:56:00.915Z,101804.49
2017-08-28T00:58:29.408Z,101800.30
2017-08-28T01:00:57.853Z,101804.65
2017-08-28T01:03:26.309Z,101801.67
2017-08-28T01:05:54.726Z,101799.94
2017-08-28T01:08:24.053Z,101793.40
2017-08-28T01:10:52.541Z,101803.92
2017-08-28T01:13:21.005Z,101798.72
2017-08-28T01:15:49.435Z,101800.47
2017-08-28T01:18:17.898Z,101801.39
2017-08-28T01:20:46.372Z,101797.92
2017-08-28T01:23:14.835Z,101798.08
2017-08-28T01:25:43.320Z,101803.00
2017-08-28T01:28:11.763Z,101808.62
2017-08-28T01:30:40.207Z,101807.52
2017-08-28T01:33:08.655Z,101806.60
2017-08-28T01:35:37.145Z,101805.28
2017-08-28T01:38:05.606Z,101805.29
2017-08-28T01:40:34.118Z,101807.08
2017-08-28T01:43:02.594Z,101808.91
2017-08-28T01:45:31.080Z,101819.05
2017-08-28T01:47:59.555Z,101825.47
2017-08-28T01:50:28.031Z,101815.08
2017-08-28T01:52:56.470Z,101826.85
2017-08-28T01:55:24.929Z,101818.84
2017-08-28T01:57:53.391Z,101821.29
2017-08-28T02:00:21.860Z,101822.22
2017-08-28T02:02:50.355Z,101820.56
2017-08-28T02:05:18.827Z,101819.27
2017-08-28T02:07:47.319Z,101824.83
2017-08-28T02:10:15.801Z,101830.94
2017-08-28T02:12:44.245Z,101824.52
2017-08-28T02:15:12.766Z,101822.86
2017-08-28T02:17:41.231Z,101817.66
2017-08-28T02:20:09.725Z,101814.28
2017-08-28T02:22:38.151Z,101819.47
2017-08-28T02:25:06.689Z,101817.30
2017-08-28T02:27:35.164Z,101819.83
2017-08-28T02:30:03.626Z,101818.11
2017-08-28T02:32:32.056Z,101820.75
2017-08-28T02:35:00.518Z,101819.40
2017-08-28T02:37:28.987Z,101817.67
2017-08-28T02:39:57.481Z,101821.69
2017-08-28T02:42:25.912Z,101819.11
2017-08-28T02:44:54.436Z,101814.75
2017-08-28T02:47:22.920Z,101819.45
2017-08-28T02:49:51.405Z,101818.15
2017-08-28T02:52:19.843Z,101817.41
2017-08-28T02:54:48.378Z,101820.45
2017-08-28T02:57:16.861Z,101820.46
2017-08-28T02:59:45.327Z,101822.23
2017-08-28T03:02:13.820Z,101823.59
2017-08-28T03:04:42.288Z,101820.20
2017-08-28T03:07:10.776Z,101821.69
2017-08-28T03:09:39.204Z,101822.00
2017-08-28T03:12:07.737Z,101828.44
2017-08-28T03:14:36.225Z,101830.70
2017-08-28T03:17:04.700Z,101828.43
2017-08-28T03:19:33.193Z,101834.61
2017-08-28T03:22:01.653Z,101837.20
2017-08-28T03:24:30.152Z,101835.10
2017-08-28T03:26:58.591Z,101842.93
2017-08-28T03:29:27.126Z,101839.94
2017-08-28T03:31:55.692Z,101837.34
2017-08-28T03:34:24.182Z,101839.96
2017-08-28T03:36:52.628Z,101837.71
2017-08-28T03:39:21.056Z,101837.33
2017-08-28T03:41:49.508Z,101837.34
2017-08-28T03:44:18.479Z,101847.69
2017-08-28T03:46:46.936Z,101842.50
2017-08-28T03:49:15.364Z,101845.05
2017-08-28T03:51:43.827Z,101844.68
2017-08-28T03:54:12.261Z,101840.78
2017-08-28T03:56:40.713Z,101849.90
2017-08-28T03:59:09.144Z,101849.45
2017-08-28T04:01:37.588Z,101845.55
2017-08-28T04:04:06.037Z,101847.74
2017-08-28T04:06:34.506Z,101847.29
2017-08-28T04:09:03.710Z,101849.52
2017-08-28T04:11:32.173Z,101849.10
2017-08-28T04:14:00.713Z,101851.63
2017-08-28T04:16:29.287Z,101846.92
2017-08-28T04:18:57.782Z,101845.59
2017-08-28T04:21:26.234Z,101849.88
2017-08-28T04:23:54.698Z,101856.38
2017-08-28T04:26:24.049Z,101859.36
2017-08-28T04:28:52.514Z,101865.44
2017-08-28T04:31:20.949Z,101870.98
2017-08-28T04:33:49.405Z,101871.38
2017-08-28T04:36:17.823Z,101875.13
2017-08-28T04:38:46.343Z,101878.86
2017-08-28T04:41:14.781Z,101881.33
2017-08-28T04:43:43.307Z,101880.41
2017-08-28T04:46:11.792Z,101883.28
2017-08-28T04:48:40.276Z,101877.18
2017-08-28T04:51:08.763Z,101878.72
2017-08-28T04:53:37.235Z,101881.80
2017-08-28T04:56:05.673Z,101882.97
2017-08-28T04:58:34.200Z,101880.66
2017-08-28T05:01:02.693Z,101889.12
2017-08-28T05:03:31.169Z,101886.33
2017-08-28T05:05:59.629Z,101884.52
2017-08-28T05:08:28.139Z,101884.75
2017-08-28T05:10:56.605Z,101880.66
2017-08-28T05:13:25.102Z,101886.06
2017-08-28T05:15:53.586Z,101891.11
2017-08-28T05:18:22.066Z,101889.38
2017-08-28T05:20:50.553Z,101890.89
2017-08-28T05:23:19.034Z,101888.46
2017-08-28T05:25:47.503Z,101888.75
2017-08-28T05:28:15.984Z,101887.34
2017-08-28T05:30:44.480Z,101878.97
2017-08-28T05:33:12.916Z,101885.73
2017-08-28T05:35:41.373Z,101892.50
2017-08-28T05:38:09.908Z,101897.08
2017-08-28T05:40:38.361Z,101889.95
2017-08-28T05:43:06.876Z,101895.50
2017-08-28T05:45:35.355Z,101893.86
2017-08-28T05:48:03.845Z,101899.72
2017-08-28T05:50:32.328Z,101905.14
2017-08-28T05:53:00.815Z,101906.28
2017-08-28T05:55:29.290Z,101910.38
2017-08-28T05:57:57.716Z,101904.91
2017-08-28T06:00:26.148Z,101908.95
2017-08-28T06:02:54.600Z,101910.41
2017-08-28T06:05:23.122Z,101912.13
2017-08-28T06:07:51.610Z,101912.82
2017-08-28T06:10:20.085Z,101906.79
2017-08-28T06:12:48.555Z,101910.70
2017-08-28T06:15:17.031Z,101909.08
2017-08-28T06:17:45.484Z,101911.75
2017-08-28T06:20:13.921Z,101907.20
2017-08-28T06:22:42.499Z,101909.91
2017-08-28T06:25:10.924Z,101905.25
2017-08-28T06:27:39.384Z,101912.02
2017-08-28T06:30:07.828Z,101914.87
2017-08-28T06:32:36.302Z,101914.90
2017-08-28T06:35:04.794Z,101911.80
2017-08-28T06:37:33.267Z,101914.97
2017-08-28T06:40:01.689Z,101914.14
2017-08-28T06:42:30.251Z,101916.39
2017-08-28T06:44:58.715Z,101917.75
2017-08-28T06:47:27.173Z,101923.85
2017-08-28T06:49:56.367Z,101925.20
2017-08-28T06:52:24.875Z,101925.25
2017-08-28T06:54:53.305Z,101931.95
2017-08-28T06:57:21.862Z,101928.19
2017-08-28T06:59:50.301Z,101934.91
2017-08-28T07:02:18.748Z,101935.23
2017-08-28T07:04:47.297Z,101939.45
2017-08-28T07:07:15.788Z,101941.33
2017-08-28T07:09:44.234Z,101947.02
2017-08-28T07:12:12.735Z,101947.08
2017-08-28T07:14:41.211Z,101939.38
2017-08-28T07:17:09.667Z,101948.05
2017-08-28T07:19:38.105Z,101945.75
2017-08-28T07:22:06.664Z,101938.47
2017-08-28T07:24:35.096Z,101946.89
2017-08-28T07:27:03.532Z,101945.75
2017-08-28T07:29:31.979Z,101948.30
2017-08-28T07:32:00.493Z,101946.45
2017-08-28T07:34:28.948Z,101953.50
2017-08-28T07:36:57.473Z,101951.36
2017-08-28T07:39:25.945Z,101952.14
2017-08-28T07:41:54.413Z,101953.27
2017-08-28T07:44:22.910Z,101958.69
2017-08-28T07:46:51.394Z,101953.56
2017-08-28T07:49:19.868Z,101953.20
2017-08-28T07:51:48.344Z,101954.89
2017-08-28T07:54:16.839Z,101957.78
2017-08-28T07:56:45.272Z,101950.66
2017-08-28T07:59:13.792Z,101949.22
2017-08-28T08:01:42.229Z,101949.67
2017-08-28T08:04:10.751Z,101958.36
2017-08-28T08:06:39.188Z,101961.72
2017-08-28T08:09:07.645Z,101958.63
2017-08-28T08:11:36.084Z,101960.50
2017-08-28T08:14:04.591Z,101958.30
2017-08-28T08:16:33.067Z,101961.81
2017-08-28T08:19:01.554Z,101961.80
2017-08-28T08:21:30.038Z,101956.42
2017-08-28T08:23:58.582Z,101960.56
2017-08-28T08:26:27.106Z,101959.14
2017-08-28T08:28:55.576Z,101957.41
2017-08-28T08:31:24.059Z,101960.05
2017-08-28T08:33:58.187Z,101960.34
2017-08-28T08:36:26.663Z,101961.19
2017-08-28T08:38:55.141Z,101956.57
2017-08-28T08:41:23.579Z,101957.89
2017-08-28T08:43:52.010Z,101965.05
2017-08-28T08:46:20.476Z,101958.76
2017-08-28T08:48:48.962Z,101963.65
2017-08-28T08:51:17.403Z,101958.77
2017-08-28T08:53:45.847Z,101958.08
2017-08-28T08:56:14.285Z,101959.22
2017-08-28T08:58:42.784Z,101953.64
2017-08-28T09:01:11.288Z,101959.05
2017-08-28T09:03:39.728Z,101962.14
2017-08-28T09:06:08.189Z,101962.91
2017-08-28T09:08:36.725Z,101967.15
2017-08-28T09:11:05.201Z,101960.80
2017-08-28T09:13:33.676Z,101960.62
2017-08-28T09:16:02.131Z,101963.06
2017-08-28T09:18:30.571Z,101967.31
2017-08-28T09:20:59.036Z,101968.09
2017-08-28T09:23:27.604Z,101967.58
2017-08-28T09:25:56.092Z,101967.19
2017-08-28T09:28:24.584Z,101978.05
2017-08-28T09:30:53.052Z,101971.75
2017-08-28T09:33:21.499Z,101973.20
2017-08-28T09:35:50.006Z,101976.28
2017-08-28T09:38:18.462Z,101978.00
2017-08-28T09:40:46.897Z,101972.02
2017-08-28T09:43:15.359Z,101973.09
2017-08-28T09:45:43.850Z,101968.08
2017-08-28T09:48:12.295Z,101965.98
2017-08-28T09:50:40.719Z,101966.25
2017-08-28T09:53:09.168Z,101965.05
2017-08-28T09:55:37.609Z,101964.32
2017-08-28T09:58:06.080Z,101968.17
2017-08-28T10:00:34.537Z,101967.58
2017-08-28T10:03:02.999Z,101966.45
2017-08-28T10:05:31.480Z,101969.25
2017-08-28T10:07:59.967Z,101969.83
2017-08-28T10:10:28.452Z,101970.39
2017-08-28T10:12:56.946Z,101963.70
2017-08-28T10:15:25.425Z,101965.60
2017-08-28T10:17:53.910Z,101963.16
2017-08-28T10:20:22.375Z,101960.02
2017-08-28T10:22:50.874Z,101962.76
2017-08-28T10:25:19.337Z,101956.30
2017-08-28T10:27:47.773Z,101952.46
2017-08-28T10:30:16.309Z,101946.08
2017-08-28T10:32:44.746Z,101948.87
2017-08-28T10:35:13.280Z,101950.49
2017-08-28T10:37:41.756Z,101950.81
2017-08-28T10:40:10.233Z,101946.13
2017-08-28T10:42:38.729Z,101945.53
2017-08-28T10:45:07.190Z,101953.80
2017-08-28T10:47:35.685Z,101945.41
2017-08-28T10:50:04.260Z,101944.73
2017-08-28T10:52:32.689Z,101942.00
2017-08-28T10:55:01.133Z,101937.66
2017-08-28T10:57:29.613Z,101939.61
2017-08-28T10:59:58.053Z,101936.64
2017-08-28T11:02:26.581Z,101941.55
2017-08-28T11:04:55.050Z,101942.28
2017-08-28T11:07:23.511Z,101945.77
2017-08-28T11:09:52.029Z,101945.55
2017-08-28T11:12:20.505Z,101942.80
2017-08-28T11:14:48.927Z,101946.61
2017-08-28T11:17:17.464Z,101948.19
2017-08-28T11:19:45.958Z,101945.97
2017-08-28T11:22:14.425Z,101943.20
2017-08-28T11:24:42.912Z,101942.89
2017-08-28T11:27:11.405Z,101936.29
2017-08-28T11:29:39.835Z,101940.50
2017-08-28T11:32:08.365Z,101939.64
2017-08-28T11:34:36.805Z,101939.35
2017-08-28T11:37:05.321Z,101940.48
2017-08-28T11:39:33.815Z,101944.13
2017-08-28T11:42:02.301Z,101939.59
2017-08-28T11:44:30.778Z,101944.10
2017-08-28T11:46:59.224Z,101943.34
2017-08-28T11:49:27.742Z,101939.40
2017-08-28T11:51:56.332Z,101937.72
2017-08-28T11:54:24.795Z,101934.83
2017-08-28T11:56:53.291Z,101934.14
2017-08-28T11:59:21.731Z,101935.95
2017-08-28T12:01:50.160Z,101930.34
2017-08-28T12:04:18.634Z,101928.28
2017-08-28T12:06:47.103Z,101925.27
2017-08-28T12:09:15.601Z,101923.09
2017-08-28T12:11:44.063Z,101919.53
2017-08-28T12:14:12.543Z,101927.64
2017-08-28T12:16:40.973Z,101920.49
2017-08-28T12:19:09.529Z,101918.05
2017-08-28T12:21:37.996Z,101925.33
2017-08-28T12:24:06.440Z,101920.41
2017-08-28T12:26:35.082Z,101923.12
2017-08-28T12:29:03.541Z,101923.39
2017-08-28T12:31:32.029Z,101922.22
2017-08-28T12:34:00.512Z,101921.39
2017-08-28T12:36:28.993Z,101920.06
2017-08-28T12:38:57.482Z,101919.45
2017-08-28T12:41:25.912Z,101914.80
2017-08-28T12:43:54.446Z,101919.23
2017-08-28T12:46:22.933Z,101913.77
2017-08-28T12:48:51.399Z,101912.78
2017-08-28T12:51:19.889Z,101905.20
2017-08-28T12:53:48.355Z,101905.70
2017-08-28T12:56:16.853Z,101904.83
2017-08-28T12:58:45.323Z,101903.97
2017-08-28T13:01:13.772Z,101899.14
2017-08-28T13:03:42.203Z,101893.95
2017-08-28T13:06:10.673Z,101899.63
2017-08-28T13:08:39.168Z,101894.33
2017-08-28T13:11:07.633Z,101900.86
2017-08-28T13:13:36.131Z,101893.53
2017-08-28T13:16:04.604Z,101888.78
2017-08-28T13:18:33.032Z,101894.06
2017-08-28T13:21:01.554Z,101897.97
2017-08-28T13:23:30.034Z,101895.38
2017-08-28T13:25:58.528Z,101888.63
2017-08-28T13:28:26.999Z,101887.43
2017-08-28T13:30:55.498Z,101887.10
2017-08-28T13:33:23.977Z,101876.87
2017-08-28T13:35:52.424Z,101879.86
2017-08-28T13:38:20.931Z,101878.42
2017-08-28T13:40:49.370Z,101884.16
2017-08-28T13:43:17.809Z,101886.03
2017-08-28T13:45:46.285Z,101882.48
2017-08-28T13:48:14.707Z,101878.30
2017-08-28T13:50:43.185Z,101874.77
2017-08-28T13:53:11.612Z,101874.41
2017-08-28T13:55:40.035Z,101877.31
2017-08-28T13:58:08.587Z,101869.73
2017-08-28T14:00:37.079Z,101867.83
2017-08-28T14:03:05.552Z,101870.92
2017-08-28T14:05:34.037Z,101870.39
2017-08-28T14:08:03.393Z,101866.00
2017-08-28T14:10:31.933Z,101868.23
2017-08-28T14:13:00.393Z,101865.34
2017-08-28T14:15:28.882Z,101865.17
2017-08-28T14:17:57.360Z,101861.97
2017-08-28T14:20:25.853Z,101866.20
2017-08-28T14:22:54.337Z,101864.80
2017-08-28T14:25:22.817Z,101868.02
2017-08-28T14:27:51.265Z,101875.28
2017-08-28T14:30:20.470Z,101867.15
2017-08-28T14:32:48.963Z,101867.94
2017-08-28T14:35:17.447Z,101867.75
2017-08-28T14:37:45.927Z,101870.58
2017-08-28T14:40:14.347Z,101871.98
2017-08-28T14:42:42.834Z,101871.08
2017-08-28T14:45:11.297Z,101867.55
2017-08-28T14:47:39.759Z,101861.00
2017-08-28T14:50:08.209Z,101859.12
2017-08-28T14:52:36.651Z,101862.88
2017-08-28T14:55:05.104Z,101861.87
2017-08-28T14:57:33.538Z,101860.28
2017-08-28T15:00:02.003Z,101854.92
2017-08-28T15:02:30.448Z,101857.55
2017-08-28T15:04:58.891Z,101859.41
2017-08-28T15:07:27.333Z,101857.01
2017-08-28T15:09:55.891Z,101849.42
2017-08-28T15:12:24.372Z,101852.24
2017-08-28T15:14:52.865Z,101857.34
2017-08-28T15:17:21.302Z,101852.09
2017-08-28T15:19:49.824Z,101853.14
2017-08-28T15:22:18.314Z,101852.15
2017-08-28T15:24:46.792Z,101852.31
2017-08-28T15:27:15.277Z,101848.13
2017-08-28T15:29:43.747Z,101844.90
2017-08-28T15:32:12.222Z,101840.16
2017-08-28T15:34:40.711Z,101842.99
2017-08-28T15:37:09.205Z,101845.41
2017-08-28T15:39:37.639Z,101841.13
2017-08-28T15:42:06.175Z,101832.95
2017-08-28T15:44:34.595Z,101837.80
2017-08-28T15:47:03.123Z,101837.06
2017-08-28T15:49:31.609Z,101835.07
2017-08-28T15:52:00.065Z,101835.48
2017-08-28T15:54:28.573Z,101833.41
2017-08-28T15:56:57.062Z,101825.97
2017-08-28T15:59:25.491Z,101826.55
2017-08-28T16:01:53.947Z,101824.71
2017-08-28T16:04:22.380Z,101820.88
2017-08-28T16:06:50.875Z,101821.05
2017-08-28T16:09:19.350Z,101820.52
2017-08-28T16:11:47.797Z,101820.22
2017-08-28T16:14:16.333Z,101817.09
2017-08-28T16:16:44.819Z,101822.81
2017-08-28T16:19:13.289Z,101823.13
2017-08-28T16:21:41.743Z,101820.37
2017-08-28T16:24:10.266Z,101821.09
2017-08-28T16:26:38.722Z,101820.84
2017-08-28T16:29:07.217Z,101815.73
2017-08-28T16:31:35.684Z,101819.46
2017-08-28T16:34:04.180Z,101819.92
2017-08-28T16:36:32.625Z,101824.77
2017-08-28T16:39:01.071Z,101821.67
2017-08-28T16:41:29.512Z,101823.41
2017-08-28T16:43:58.000Z,101825.84
2017-08-28T16:46:26.489Z,101822.97
2017-08-28T16:48:54.968Z,101819.75
2017-08-28T16:51:23.450Z,101823.03
2017-08-28T16:53:51.896Z,101821.98
2017-08-28T16:56:21.097Z,101824.02
2017-08-28T16:58:49.617Z,101820.50
2017-08-28T17:01:18.091Z,101821.88
2017-08-28T17:03:46.575Z,101822.44
2017-08-28T17:06:14.994Z,101820.85
2017-08-28T17:08:43.545Z,101824.83
2017-08-28T17:11:11.981Z,101826.21
2017-08-28T17:13:40.516Z,101832.44
2017-08-28T17:16:08.994Z,101833.25
2017-08-28T17:18:37.568Z,101831.47
2017-08-28T17:21:06.052Z,101838.58
2017-08-28T17:26:27.949Z,101839.00
2017-08-28T17:28:56.395Z,101843.15
2017-08-28T17:31:24.828Z,101848.52
2017-08-28T17:33:53.344Z,101839.87
2017-08-28T17:36:21.773Z,101844.92
2017-08-28T17:38:50.322Z,101839.63
2017-08-28T17:41:18.792Z,101849.20
2017-08-28T17:43:47.221Z,101847.16
2017-08-28T17:46:15.752Z,101848.25
2017-08-28T17:48:44.193Z,101848.85
2017-08-28T17:51:12.657Z,101849.30
2017-08-28T17:53:41.086Z,101852.98
2017-08-28T17:56:09.585Z,101852.83
2017-08-28T17:58:38.029Z,101856.77
2017-08-28T18:01:06.556Z,101860.20
2017-08-28T18:03:35.031Z,101860.06
2017-08-28T18:06:03.504Z,101858.06
2017-08-28T18:08:32.006Z,101859.73
2017-08-28T18:11:00.461Z,101865.47
2017-08-28T18:13:28.924Z,101875.05
2017-08-28T18:15:58.148Z,101873.05
2017-08-28T18:18:26.595Z,101873.00
2017-08-28T18:20:55.043Z,101871.52
2017-08-28T18:23:23.465Z,101878.96
2017-08-28T18:25:51.913Z,101886.59
2017-08-28T18:28:20.367Z,101879.62
2017-08-28T18:30:48.846Z,101883.23
2017-08-28T18:33:17.319Z,101886.59
2017-08-28T18:35:45.793Z,101885.40
2017-08-28T18:38:14.235Z,101890.41
2017-08-28T18:40:42.664Z,101888.47
2017-08-28T18:43:11.144Z,101890.03
2017-08-28T18:45:39.628Z,101889.31
2017-08-28T18:48:08.119Z,101888.72
2017-08-28T18:50:36.558Z,101895.20
2017-08-28T18:53:05.003Z,101890.53
2017-08-28T18:55:33.463Z,101896.11
2017-08-28T18:58:01.932Z,101891.89
2017-08-28T19:00:30.426Z,101898.81
2017-08-28T19:02:58.869Z,101897.28
2017-08-28T19:05:27.389Z,101895.78
2017-08-28T19:07:55.912Z,101895.39
2017-08-28T19:10:24.353Z,101894.36
2017-08-28T19:12:52.818Z,101898.08
2017-08-28T19:15:21.260Z,101896.47
2017-08-28T19:17:49.717Z,101897.11
2017-08-28T19:20:18.158Z,101895.20
2017-08-28T19:22:46.659Z,101896.48
2017-08-28T19:25:15.141Z,101903.17
2017-08-28T19:27:43.617Z,101899.87
2017-08-28T19:30:12.053Z,101904.56
2017-08-28T19:32:40.586Z,101901.56
2017-08-28T19:35:09.055Z,101903.94
2017-08-28T19:37:37.508Z,101898.86
2017-08-28T19:40:06.044Z,101901.08
2017-08-28T19:42:34.523Z,101902.88
2017-08-28T19:45:02.979Z,101902.41
2017-08-28T19:47:31.467Z,101907.81
2017-08-28T19:49:59.954Z,101902.97
2017-08-28T19:52:28.380Z,101905.86
2017-08-28T19:54:56.846Z,101912.01
2017-08-28T19:57:25.303Z,101914.31
2017-08-28T19:59:53.774Z,101918.27
2017-08-28T20:02:27.736Z,101922.00
2017-08-28T20:04:56.193Z,101922.41
2017-08-28T20:07:24.658Z,101926.62
2017-08-28T20:09:53.142Z,101923.69
2017-08-28T20:12:21.607Z,101924.95
2017-08-28T20:14:50.069Z,101920.13
2017-08-28T20:17:18.587Z,101922.00
2017-08-28T20:19:47.045Z,101925.13
2017-08-28T20:22:15.555Z,101917.42
2017-08-28T20:24:44.020Z,101917.20
2017-08-28T20:27:12.504Z,101918.17
2017-08-28T20:29:40.979Z,101924.06
2017-08-28T20:32:09.459Z,101920.77
2017-08-28T20:34:37.913Z,101916.52
2017-08-28T20:37:06.442Z,101917.52
2017-08-28T20:39:34.912Z,101916.30
2017-08-28T20:42:03.391Z,101920.84
2017-08-28T20:44:31.839Z,101914.76
2017-08-28T20:47:01.036Z,101914.70
2017-08-28T20:49:29.571Z,101921.65
2017-08-28T20:51:58.053Z,101926.55
2017-08-28T20:54:26.519Z,101923.54
2017-08-28T20:56:55.009Z,101922.54
2017-08-28T20:59:23.451Z,101929.95
2017-08-28T21:01:51.973Z,101929.56
2017-08-28T21:04:20.448Z,101933.16
2017-08-28T21:06:48.901Z,101934.25
2017-08-28T21:09:17.341Z,101929.67
2017-08-28T21:11:45.794Z,101932.48
2017-08-28T21:14:14.221Z,101929.55
2017-08-28T21:16:42.751Z,101928.77
2017-08-28T21:19:11.261Z,101928.95
2017-08-28T21:21:39.708Z,101930.91
2017-08-28T21:24:08.216Z,101925.56
2017-08-28T21:26:36.684Z,101931.53
2017-08-28T21:29:05.111Z,101924.94
2017-08-28T21:31:33.570Z,101927.28
2017-08-28T21:34:02.033Z,101930.33
2017-08-28T21:36:30.518Z,101928.48
2017-08-28T21:38:58.955Z,101931.00
2017-08-28T21:41:27.418Z,101929.60
2017-08-28T21:43:55.853Z,101928.97
2017-08-28T21:46:24.340Z,101922.75
2017-08-28T21:48:52.821Z,101920.80
2017-08-28T21:51:21.313Z,101921.22
2017-08-28T21:53:49.789Z,101921.72
2017-08-28T21:56:18.368Z,101918.44
2017-08-28T21:58:46.808Z,101922.34
2017-08-28T22:01:15.330Z,101917.06
2017-08-28T22:03:43.819Z,101920.50
2017-08-28T22:06:12.296Z,101916.20
2017-08-28T22:08:40.789Z,101918.45
2017-08-28T22:11:09.261Z,101914.89
2017-08-28T22:13:37.752Z,101918.74
2017-08-28T22:16:06.224Z,101916.91
2017-08-28T22:18:34.700Z,101921.01
2017-08-28T22:21:03.195Z,101917.29
2017-08-28T22:23:31.664Z,101919.48
2017-08-28T22:26:00.161Z,101922.64
2017-08-28T22:28:28.617Z,101921.48
2017-08-28T22:30:57.052Z,101910.92
2017-08-28T22:33:25.583Z,101910.28
2017-08-28T22:35:54.012Z,101903.64
2017-08-28T22:38:22.461Z,101903.18
2017-08-28T22:40:50.950Z,101897.47
2017-08-28T22:43:19.409Z,101900.75
2017-08-28T22:45:47.904Z,101902.16
2017-08-28T22:48:16.344Z,101901.94
2017-08-28T22:50:44.859Z,101902.24
2017-08-28T22:53:13.344Z,101891.81
2017-08-28T22:55:41.837Z,101895.08
2017-08-28T22:58:10.288Z,101891.98
2017-08-28T23:00:38.744Z,101886.91
2017-08-28T23:03:07.163Z,101887.44
2017-08-28T23:05:35.651Z,101884.17
2017-08-28T23:08:04.131Z,101888.13
2017-08-28T23:10:32.615Z,101889.28
2017-08-28T23:13:01.092Z,101890.39
2017-08-28T23:15:29.587Z,101885.62
2017-08-28T23:17:58.059Z,101880.60
2017-08-28T23:20:26.545Z,101882.41
2017-08-28T23:22:54.984Z,101879.02
2017-08-28T23:25:23.440Z,101873.38
2017-08-28T23:27:51.874Z,101875.72
2017-08-28T23:30:20.319Z,101865.31
2017-08-28T23:32:48.747Z,101864.09
2017-08-28T23:35:17.246Z,101863.49
2017-08-28T23:37:45.672Z,101862.53
2017-08-28T23:40:14.132Z,101865.64
2017-08-28T23:42:42.580Z,101864.78
2017-08-28T23:45:11.013Z,101859.57
2017-08-28T23:47:39.529Z,101859.58
2017-08-28T23:50:08.020Z,101858.94
2017-08-28T23:52:36.477Z,101858.59
2017-08-28T23:55:04.997Z,101858.59
2017-08-28T23:57:33.468Z,101857.22
